Time;durP1;ratioP1;P1;durP2;ratioP2;P2;SDS_P1;SDS_P2;PMS_P1;PMS_P2;Temp;Humidity;BMP_temperature;BMP_pressure;BME280_temperature;BME280_humidity;BME280_pressure;Samples;Min_cycle;Max_cycle;Signal;HPM_P1;HPM_P2
2022/12/04 00:02:18;;;;;;;4.68;4.07;;;;;;;4.87;93.26;94281.69;5025660;28;20116;-35
2022/12/04 00:04:44;;;;;;;4.30;2.80;;;;;;;4.99;93.55;94302.38;5025264;28;20030;-35
2022/12/04 00:07:09;;;;;;;5.32;3.13;;;;;;;5.03;93.32;94305.59;5028988;28;20037;-35
2022/12/04 00:09:34;;;;;;;4.75;3.17;;;;;;;5.08;92.75;94304.88;5024666;28;20104;-35
2022/12/04 00:12:00;;;;;;;8.82;3.42;;;;;;;5.00;93.30;94304.59;5019616;28;20527;-35
2022/12/04 00:14:26;;;;;;;4.28;2.92;;;;;;;4.96;93.21;94308.84;5026494;28;20532;-35
2022/12/04 00:16:51;;;;;;;3.28;2.83;;;;;;;5.08;92.84;94313.84;5025118;28;20025;-35
2022/12/04 00:19:16;;;;;;;4.25;2.20;;;;;;;5.05;92.75;94308.59;5022557;28;20041;-35
2022/12/04 00:21:44;;;;;;;3.72;2.67;;;;;;;5.03;91.95;94314.56;5027164;28;20080;-35
2022/12/04 00:24:09;;;;;;;2.90;2.35;;;;;;;5.10;91.51;94307.88;5029708;28;20076;-35
2022/12/04 00:26:34;;;;;;;2.80;2.50;;;;;;;5.14;91.18;94309.16;5027744;28;20131;-35
2022/12/04 00:29:00;;;;;;;3.63;2.60;;;;;;;5.10;91.44;94316.09;5025432;28;20043;-35
2022/12/04 00:31:27;;;;;;;4.88;2.70;;;;;;;5.13;91.85;94315.13;5030400;28;20017;-35
2022/12/04 00:33:52;;;;;;;4.32;2.40;;;;;;;5.06;92.01;94316.34;5030880;28;20111;-35
2022/12/04 00:36:21;;;;;;;4.05;2.40;;;;;;;5.19;91.31;94332.31;5027121;28;20113;-35
2022/12/04 00:38:46;;;;;;;3.88;2.78;;;;;;;5.19;90.70;94326.84;5028395;28;20048;-35
2022/12/04 00:41:15;;;;;;;5.05;3.00;;;;;;;5.16;91.00;94322.34;5022258;28;20195;-35
2022/12/04 00:43:40;;;;;;;4.43;3.15;;;;;;;5.22;91.17;94317.63;5028993;28;20112;-35
2022/12/04 00:46:06;;;;;;;2.92;2.40;;;;;;;5.20;90.68;94318.13;5018182;28;20061;-35
2022/12/04 00:48:31;;;;;;;2.85;2.50;;;;;;;5.18;90.17;94306.16;5016641;28;21219;-35
2022/12/04 00:51:02;;;;;;;3.15;2.42;;;;;;;5.01;90.54;94294.41;5027319;28;20018;-35
2022/12/04 00:53:27;;;;;;;2.72;2.20;;;;;;;5.24;91.11;94323.38;5030154;28;20133;-35
2022/12/04 00:55:53;;;;;;;2.83;2.42;;;;;;;5.25;90.91;94319.38;5019085;28;20478;-35
2022/12/04 00:58:18;;;;;;;2.72;2.25;;;;;;;5.19;91.04;94321.34;5023376;28;20416;-35
2022/12/04 01:00:44;;;;;;;4.30;2.97;;;;;;;5.21;90.51;94324.34;5029902;28;20485;-35
2022/12/04 01:03:09;;;;;;;3.10;2.55;;;;;;;5.08;90.61;94302.16;5029973;28;20026;-35
2022/12/04 01:05:43;;;;;;;2.10;1.90;;;;;;;5.27;90.54;94317.66;5030044;28;20107;-36
2022/12/04 01:08:09;;;;;;;4.05;2.70;;;;;;;5.30;90.22;94319.41;5025229;28;20036;-36
2022/12/04 01:10:37;;;;;;;6.13;2.33;;;;;;;5.34;89.61;94324.63;5034959;28;20025;-35
2022/12/04 01:13:02;;;;;;;3.92;2.70;;;;;;;5.31;90.00;94322.88;5030578;28;20025;-36
2022/12/04 01:15:28;;;;;;;4.50;2.60;;;;;;;5.33;89.82;94317.66;5023623;28;20025;-35
2022/12/04 01:17:53;;;;;;;3.65;2.78;;;;;;;5.40;89.77;94314.44;5026811;28;20100;-36
2022/12/04 01:20:19;;;;;;;4.03;3.00;;;;;;;5.47;89.31;94324.16;5029209;28;20044;-36
2022/12/04 01:22:44;;;;;;;4.28;3.08;;;;;;;5.46;89.43;94319.94;5023456;28;20037;-35
2022/12/04 01:25:10;;;;;;;3.90;2.90;;;;;;;5.50;89.31;94315.69;5022584;28;20030;-35
2022/12/04 01:27:35;;;;;;;4.90;3.10;;;;;;;5.47;89.04;94310.47;5026205;28;20034;-34
2022/12/04 01:30:01;;;;;;;4.60;2.63;;;;;;;5.53;88.64;94316.72;5021392;28;20105;-34
2022/12/04 01:32:27;;;;;;;10.45;5.07;;;;;;;5.57;88.76;94314.47;5024793;28;20163;-35
2022/12/04 01:34:52;;;;;;;13.75;6.78;;;;;;;5.48;89.25;94323.66;5022558;28;20037;-35
2022/12/04 01:37:18;;;;;;;17.83;9.05;;;;;;;5.59;88.55;94331.19;5028701;28;20051;-34
2022/12/04 01:39:43;;;;;;;5.07;3.80;;;;;;;5.65;87.98;94324.44;5027494;28;20025;-35
2022/12/04 01:42:14;;;;;;;4.07;3.13;;;;;;;5.52;87.92;94324.19;5025521;28;20045;-35
2022/12/04 01:44:42;;;;;;;15.02;7.20;;;;;;;5.52;88.40;94326.19;5024278;28;20537;-35
2022/12/04 01:47:09;;;;;;;53.47;22.13;;;;;;;5.61;88.83;94315.72;5028798;28;20035;-35
2022/12/04 01:49:37;;;;;;;24.08;12.48;;;;;;;5.67;88.78;94313.78;5024027;28;20033;-35
2022/12/04 01:52:18;;;;;;;7.93;5.22;;;;;;;5.60;88.30;94306.03;5028267;28;20179;-34
2022/12/04 01:54:47;;;;;;;3.28;2.97;;;;;;;5.62;88.59;94300.81;5015806;28;20034;-35
2022/12/04 01:57:15;;;;;;;3.25;2.88;;;;;;;5.68;87.48;94298.81;5027522;28;20041;-35
2022/12/04 01:59:44;;;;;;;2.90;2.42;;;;;;;5.61;87.21;94302.03;5027124;28;20051;-35
2022/12/04 02:02:14;;;;;;;2.95;2.13;;;;;;;5.47;87.13;94292.06;5026429;28;20033;-35
2022/12/04 02:04:40;;;;;;;3.13;2.55;;;;;;;5.36;87.88;94300.25;5038273;28;20101;-35
2022/12/04 02:07:06;;;;;;;4.15;2.75;;;;;;;5.29;87.93;94298.75;5027771;28;20036;-34
2022/12/04 02:09:32;;;;;;;3.75;2.85;;;;;;;5.34;87.90;94297.25;5022917;28;20032;-34
2022/12/04 02:12:22;;;;;;;4.38;3.13;;;;;;;5.42;87.50;94301.00;5044170;28;20029;-34
2022/12/04 02:14:56;;;;;;;2.38;2.00;;;;;;;5.32;87.19;94300.50;5029987;28;20036;-35
2022/12/04 02:17:31;;;;;;;3.55;2.67;;;;;;;5.07;88.54;94282.25;5027256;28;20481;-34
2022/12/04 02:20:34;;;;;;;5.45;2.83;;;;;;;5.22;88.83;94291.00;5026235;28;20144;-36
2022/12/04 02:23:24;;;;;;;3.28;2.78;;;;;;;5.26;88.66;94288.03;5005199;28;20104;-34
2022/12/04 02:26:00;;;;;;;3.35;2.40;;;;;;;5.25;88.94;94294.75;5023717;28;20025;-34
2022/12/04 02:28:31;;;;;;;4.32;2.88;;;;;;;5.15;89.48;94294.22;5023593;28;20029;-35
2022/12/04 02:30:59;;;;;;;4.13;2.67;;;;;;;5.21;88.97;94296.97;5021450;28;20053;-34
2022/12/04 02:33:26;;;;;;;5.03;2.88;;;;;;;5.26;88.76;94294.25;5029583;28;20022;-35
2022/12/04 02:36:01;;;;;;;4.90;3.42;;;;;;;5.24;89.08;94287.78;5028367;28;20546;-35
2022/12/04 02:38:34;;;;;;;4.57;3.38;;;;;;;5.25;88.99;94292.75;5028161;28;20025;-35
2022/12/04 02:41:18;;;;;;;4.60;3.13;;;;;;;5.11;89.32;94301.19;5029707;28;20021;-35
2022/12/04 02:44:03;;;;;;;4.00;2.85;;;;;;;5.02;89.73;94298.66;5022122;28;20036;-35
2022/12/04 02:46:55;;;;;;;4.13;2.67;;;;;;;5.07;90.04;94300.66;5016709;28;20040;-35
2022/12/04 02:49:26;;;;;;;3.78;2.47;;;;;;;5.10;89.62;94297.69;5017514;28;20034;-35
2022/12/04 02:51:53;;;;;;;3.13;2.30;;;;;;;5.01;89.54;94283.47;5024056;28;20038;-35
2022/12/04 02:54:29;;;;;;;4.45;3.50;;;;;;;5.15;89.27;94299.72;5022957;28;20025;-35
2022/12/04 02:56:55;;;;;;;4.40;3.08;;;;;;;5.16;89.26;94303.16;5031185;28;20104;-35
2022/12/04 02:59:41;;;;;;;6.60;4.15;;;;;;;5.13;89.72;94301.44;5032288;28;20029;-35
2022/12/04 03:02:10;;;;;;;6.15;3.83;;;;;;;5.20;89.13;94295.47;5033052;28;20022;-35
2022/12/04 03:04:37;;;;;;;4.72;3.65;;;;;;;5.14;89.86;94298.19;5024019;28;20559;-36
2022/12/04 03:07:14;;;;;;;6.05;3.88;;;;;;;5.16;89.60;94287.50;5023991;28;20425;-36
2022/12/04 03:09:46;;;;;;;4.32;3.10;;;;;;;5.20;89.06;94287.25;5043261;28;20044;-35
2022/12/04 03:12:19;;;;;;;5.15;3.88;;;;;;;5.06;89.32;94285.47;5025146;28;20033;-35
2022/12/04 03:14:54;;;;;;;5.88;4.03;;;;;;;5.04;90.02;94282.50;5022498;28;20038;-35
2022/12/04 03:17:32;;;;;;;5.47;3.60;;;;;;;5.15;89.84;94280.53;5023312;28;20022;-35
2022/12/04 03:20:02;;;;;;;5.07;3.40;;;;;;;5.09;89.83;94289.97;5039155;28;20049;-35
2022/12/04 03:22:28;;;;;;;4.75;3.22;;;;;;;5.03;89.24;94275.50;5031737;28;20067;-35
2022/12/04 03:24:55;;;;;;;5.53;3.40;;;;;;;5.10;90.00;94278.53;5025911;28;20036;-35
2022/12/04 03:27:35;;;;;;;6.15;4.13;;;;;;;5.02;90.18;94276.75;5031865;28;20032;-34
2022/12/04 03:30:17;;;;;;;7.13;4.38;;;;;;;4.91;90.29;94272.00;5029986;28;20030;-35
2022/12/04 03:32:49;;;;;;;10.15;3.53;;;;;;;4.99;91.09;94285.94;5029523;28;20064;-34
2022/12/04 03:35:22;;;;;;;5.57;3.75;;;;;;;4.88;91.19;94278.44;5028221;28;20021;-34
2022/12/04 03:38:09;;;;;;;4.78;3.47;;;;;;;5.10;90.77;94286.75;5029818;28;20029;-35
2022/12/04 03:40:38;;;;;;;4.43;3.15;;;;;;;5.01;89.94;94281.47;5020675;28;20564;-35
2022/12/04 03:43:17;;;;;;;6.05;3.33;;;;;;;5.11;89.53;94282.75;5025555;28;20022;-35
2022/12/04 03:45:46;;;;;;;6.65;3.90;;;;;;;5.07;89.59;94284.97;5039361;28;20040;-35
2022/12/04 03:48:21;;;;;;;5.03;4.18;;;;;;;5.04;89.94;94285.22;5028013;28;20088;-35
2022/12/04 03:51:10;;;;;;;3.38;2.88;;;;;;;5.16;89.49;94278.53;5026934;28;20025;-35
2022/12/04 03:53:38;;;;;;;3.88;2.95;;;;;;;4.99;89.07;94253.09;5019887;28;20041;-35
2022/12/04 03:56:17;;;;;;;4.22;3.22;;;;;;;5.20;88.96;94284.50;5044792;28;20251;-34
2022/12/04 03:58:47;;;;;;;;;;;;;;;5.15;88.87;94274.31;5046558;28;20512;-35
2022/12/04 04:01:14;;;;;;;3.85;2.97;;;;;;;5.00;89.67;94273.78;5045583;28;19913;-35
2022/12/04 04:03:45;;;;;;;3.33;2.42;;;;;;;5.08;89.78;94283.00;5025805;28;20037;-35
2022/12/04 04:06:16;;;;;;;3.97;3.10;;;;;;;5.12;89.10;94284.25;5021091;28;20040;-34
2022/12/04 04:08:44;;;;;;;3.20;2.78;;;;;;;4.91;89.75;94273.97;5029048;28;20090;-34
2022/12/04 04:11:13;;;;;;;5.60;2.75;;;;;;;4.93;90.32;94285.19;5027578;28;20072;-34
2022/12/04 04:24:47;;;;;;;5.05;3.40;;;;;;;4.77;92.12;94289.34;5017257;28;20040;-34
2022/12/04 04:27:13;;;;;;;4.07;2.83;;;;;;;4.81;91.79;94287.13;5034560;28;20051;-34
2022/12/04 04:29:39;;;;;;;6.05;3.97;;;;;;;4.75;91.89;94288.31;5028603;28;20418;-34
2022/12/04 04:32:38;;;;;;;5.43;3.33;;;;;;;4.72;92.69;94279.13;5031762;28;20471;-34
2022/12/04 04:35:15;;;;;;;;;;;;;;;4.75;92.29;94288.31;5024150;28;20049;-34
2022/12/04 04:37:52;;;;;;;7.43;3.10;;;;;;;4.73;92.45;94293.53;5029057;28;19997;-34
2022/12/04 04:40:17;;;;;;;4.20;3.17;;;;;;;4.59;93.21;94287.75;5024970;28;20032;-34
2022/12/04 04:43:18;;;;;;;4.97;3.67;;;;;;;4.70;93.04;94292.53;5030650;28;20112;-34
2022/12/04 04:45:45;;;;;;;6.80;3.83;;;;;;;4.79;92.55;94288.84;5018125;28;20574;-34
2022/12/04 04:48:39;;;;;;;4.90;3.88;;;;;;;4.74;92.81;94297.78;5019921;28;20076;-34
2022/12/04 04:51:05;;;;;;;4.93;3.78;;;;;;;4.83;92.77;94287.38;5042443;28;20065;-35
2022/12/04 04:53:46;;;;;;;6.22;4.20;;;;;;;4.86;92.27;94297.34;5027449;28;20405;-34
2022/12/04 04:56:12;;;;;;;5.88;3.45;;;;;;;4.86;92.25;94300.09;5029475;28;20051;-35
2022/12/04 04:58:37;;;;;;;5.22;3.35;;;;;;;4.84;91.96;94305.28;5030087;28;20033;-34
2022/12/04 05:01:06;;;;;;;4.95;4.00;;;;;;;4.92;92.07;94292.63;5028396;28;20033;-34
2022/12/04 05:03:32;;;;;;;;;;;;;;;4.96;92.11;94300.63;5026947;28;20124;-34
2022/12/04 05:05:58;;;;;;;4.68;3.25;;;;;;;5.01;92.15;94297.91;5027183;28;19996;-34
2022/12/04 05:08:23;;;;;;;5.50;3.45;;;;;;;5.12;90.50;94308.88;5031072;28;20028;-34
2022/12/04 05:10:49;;;;;;;6.57;4.07;;;;;;;5.04;90.57;94301.66;5030939;28;20017;-35
2022/12/04 05:13:15;;;;;;;5.25;3.72;;;;;;;5.04;90.61;94313.34;5022352;28;20037;-35
2022/12/04 05:15:41;;;;;;;6.00;4.18;;;;;;;4.98;91.08;94301.59;5023726;28;20108;-35
2022/12/04 05:18:07;;;;;;;5.38;3.65;;;;;;;5.00;91.02;94306.63;5026497;28;20144;-35
2022/12/04 05:20:33;;;;;;;5.43;4.32;;;;;;;4.94;91.08;94309.31;5029807;28;20029;-34
2022/12/04 05:22:59;;;;;;;5.80;3.80;;;;;;;5.01;90.38;94306.13;5024401;28;20025;-35
2022/12/04 05:25:25;;;;;;;5.68;3.67;;;;;;;5.04;90.19;94307.13;5029845;28;20032;-35
2022/12/04 05:27:50;;;;;;;6.72;3.97;;;;;;;4.95;90.41;94310.81;5025945;28;20033;-35
2022/12/04 05:30:15;;;;;;;3.70;3.33;;;;;;;4.95;90.44;94299.13;5029579;28;20484;-35
2022/12/04 05:32:41;;;;;;;6.78;4.45;;;;;;;4.88;90.71;94311.28;5030066;28;20033;-35
2022/12/04 05:35:07;;;;;;;4.20;3.53;;;;;;;4.88;91.28;94314.00;5028118;28;20083;-35
2022/12/04 05:37:36;;;;;;;6.20;3.95;;;;;;;4.83;91.70;94314.00;5029026;28;20057;-35
2022/12/04 05:40:01;;;;;;;;;;;;;;;4.87;91.94;94317.25;5023381;28;20034;-35
2022/12/04 05:42:27;;;;;;;5.20;3.58;;;;;;;4.92;91.48;94320.00;5027523;28;20011;-35
2022/12/04 05:44:52;;;;;;;5.93;4.38;;;;;;;4.94;91.63;94324.97;5028098;28;20116;-35
2022/12/04 05:47:17;;;;;;;5.80;4.10;;;;;;;4.92;91.01;94324.72;5025959;28;20524;-36
2022/12/04 05:49:43;;;;;;;4.40;3.22;;;;;;;4.90;90.91;94322.47;5019178;28;20057;-35
2022/12/04 05:52:09;;;;;;;47.28;6.57;;;;;;;4.96;90.58;94325.97;5017909;28;20026;-35
2022/12/04 05:54:35;;;;;;;6.63;3.78;;;;;;;4.92;90.70;94324.72;5017856;28;20041;-36
2022/12/04 05:57:00;;;;;;;5.40;3.25;;;;;;;4.90;90.80;94333.41;5024948;28;20489;-35
2022/12/04 05:59:26;;;;;;;6.88;3.78;;;;;;;4.92;91.36;94330.19;5025765;28;20029;-35
2022/12/04 06:01:51;;;;;;;7.85;4.80;;;;;;;4.93;91.22;94326.22;5023116;28;20112;-35
2022/12/04 06:04:17;;;;;;;6.28;3.95;;;;;;;4.95;91.12;94335.44;5025035;28;20311;-35
2022/12/04 06:06:42;;;;;;;8.85;4.25;;;;;;;5.02;90.82;94331.50;5023864;28;20497;-35
2022/12/04 06:09:08;;;;;;;4.82;3.47;;;;;;;5.11;90.32;94323.81;5023324;28;20457;-36
2022/12/04 06:11:35;;;;;;;4.63;3.67;;;;;;;5.19;89.46;94329.56;5029719;28;20037;-35
2022/12/04 06:14:02;;;;;;;4.22;3.30;;;;;;;4.99;89.45;94337.94;5026282;28;20025;-35
2022/12/04 06:16:30;;;;;;;7.45;3.63;;;;;;;5.01;89.75;94333.47;5029737;28;20033;-35
2022/12/04 06:19:06;;;;;;;5.47;3.47;;;;;;;5.05;89.92;94334.00;5019574;28;20057;-35
2022/12/04 06:21:33;;;;;;;4.68;3.50;;;;;;;5.00;89.91;94342.91;5021377;28;20505;-35
2022/12/04 06:23:59;;;;;;;5.60;4.15;;;;;;;4.94;90.14;94339.41;5029714;28;20510;-35
2022/12/04 06:26:24;;;;;;;5.13;3.28;;;;;;;4.81;90.72;94339.09;5025434;28;20105;-35
2022/12/04 06:28:55;;;;;;;3.92;2.83;;;;;;;4.82;90.80;94334.38;5027032;28;20056;-35
2022/12/04 06:31:21;;;;;;;6.30;4.15;;;;;;;4.81;91.06;94341.84;5027081;28;20028;-35
2022/12/04 06:33:47;;;;;;;6.95;3.83;;;;;;;4.86;91.20;94340.38;5024058;28;20037;-35
2022/12/04 06:36:15;;;;;;;5.07;3.45;;;;;;;4.88;91.08;94337.88;5025959;28;20026;-35
2022/12/04 06:38:41;;;;;;;6.15;4.22;;;;;;;4.81;91.68;94338.38;5029579;28;20036;-35
2022/12/04 06:41:09;;;;;;;5.03;3.92;;;;;;;4.89;91.59;94336.66;5022382;28;20100;-35
2022/12/04 06:43:35;;;;;;;3.40;3.08;;;;;;;4.84;91.69;94346.34;5025603;28;20033;-35
2022/12/04 06:46:01;;;;;;;4.13;3.45;;;;;;;4.98;91.48;94337.19;5018076;28;20061;-35
2022/12/04 06:48:28;;;;;;;5.22;3.90;;;;;;;5.00;91.47;94337.44;5026794;28;20429;-35
2022/12/04 06:51:04;;;;;;;4.75;4.03;;;;;;;5.14;90.59;94341.25;5026934;28;20112;-34
2022/12/04 06:53:31;;;;;;;3.53;2.90;;;;;;;5.06;90.42;94337.47;5029214;28;20018;-35
2022/12/04 06:55:58;;;;;;;6.00;3.78;;;;;;;5.00;91.01;94339.44;5021932;28;20029;-35
2022/12/04 06:58:25;;;;;;;5.88;3.55;;;;;;;5.06;90.78;94338.25;5029371;28;20029;-34
2022/12/04 07:00:50;;;;;;;5.85;3.65;;;;;;;4.94;91.32;94333.19;5025038;28;20110;-35
2022/12/04 07:03:16;;;;;;;5.43;3.42;;;;;;;5.02;91.28;94345.94;5028470;28;20064;-35
2022/12/04 07:05:42;;;;;;;6.57;3.65;;;;;;;4.94;91.39;94344.13;5024668;28;20026;-35
2022/12/04 07:08:07;;;;;;;6.28;4.03;;;;;;;5.00;91.14;94344.94;5015879;28;20035;-35
2022/12/04 07:10:35;;;;;;;10.30;6.13;;;;;;;5.00;90.83;94342.19;5029083;28;20394;-35
2022/12/04 07:13:01;;;;;;;7.78;4.95;;;;;;;4.99;91.39;94341.44;5027824;28;20056;-35
2022/12/04 07:15:27;;;;;;;12.55;5.72;;;;;;;5.04;91.42;94348.16;5025966;28;20022;-35
2022/12/04 07:17:52;;;;;;;7.88;4.38;;;;;;;5.12;90.68;94343.72;5027868;28;20416;-35
2022/12/04 07:20:18;;;;;;;7.32;4.18;;;;;;;4.97;91.07;94348.63;5028281;28;20041;-35
2022/12/04 07:22:43;;;;;;;8.45;5.63;;;;;;;4.87;92.10;94345.38;5028160;28;20025;-35
2022/12/04 07:25:09;;;;;;;8.60;6.00;;;;;;;4.84;92.78;94353.78;5027659;28;20538;-35
2022/12/04 07:27:34;;;;;;;12.23;4.38;;;;;;;4.92;92.74;94363.03;5026672;28;20025;-34
2022/12/04 07:30:00;;;;;;;5.78;3.85;;;;;;;4.91;92.45;94353.34;5023673;28;20053;-34
2022/12/04 07:32:25;;;;;;;10.15;5.50;;;;;;;4.97;91.81;94354.09;5025461;28;20021;-35
2022/12/04 07:34:52;;;;;;;7.53;4.78;;;;;;;4.94;92.16;94366.03;5026416;28;20025;-35
2022/12/04 07:37:18;;;;;;;8.65;5.38;;;;;;;4.94;91.91;94364.03;5025729;28;20026;-35
2022/12/04 07:39:44;;;;;;;11.80;6.15;;;;;;;5.00;92.24;94358.59;5030066;28;20026;-35
2022/12/04 07:42:10;;;;;;;5.85;4.68;;;;;;;5.05;91.91;94363.34;5031096;28;20492;-35
2022/12/04 07:44:36;;;;;;;9.77;7.05;;;;;;;5.11;91.81;94364.88;5029277;28;20068;-35
2022/12/04 07:47:01;;;;;;;4.97;3.55;;;;;;;5.17;91.32;94365.66;5029326;28;20413;-35
2022/12/04 07:49:27;;;;;;;5.88;4.10;;;;;;;5.05;90.74;94361.34;5031910;28;20021;-35
2022/12/04 07:51:52;;;;;;;7.25;4.82;;;;;;;5.16;90.64;94374.34;5026442;28;20017;-35
2022/12/04 07:54:18;;;;;;;5.50;4.15;;;;;;;5.21;91.29;94381.84;5044615;28;20455;-35
2022/12/04 07:56:43;;;;;;;5.93;4.03;;;;;;;5.21;90.21;94382.59;5020627;28;20112;-35
2022/12/04 07:59:08;;;;;;;5.72;4.00;;;;;;;5.16;90.89;94379.81;5027759;28;20036;-35
2022/12/04 08:01:34;;;;;;;5.18;3.65;;;;;;;5.21;89.86;94379.09;5028232;28;20083;-35
2022/12/04 08:04:00;;;;;;;5.95;4.10;;;;;;;5.28;89.41;94376.63;5029498;28;20049;-35
2022/12/04 08:06:27;;;;;;;5.50;3.83;;;;;;;5.36;88.89;94374.19;5026667;28;20044;-35
2022/12/04 08:08:53;;;;;;;5.68;4.18;;;;;;;5.16;89.31;94379.81;5025928;28;20032;-35
2022/12/04 08:11:23;;;;;;;8.77;3.90;;;;;;;5.24;90.27;94386.34;5025647;28;20401;-35
2022/12/04 08:14:15;;;;;;;6.65;4.05;;;;;;;5.23;89.55;94388.31;5025541;28;20502;-36
2022/12/04 08:16:40;;;;;;;8.80;4.78;;;;;;;5.28;89.41;94384.84;5021648;28;20042;-36
2022/12/04 08:19:05;;;;;;;6.63;4.43;;;;;;;5.17;89.70;94370.38;5027164;28;20042;-35
2022/12/04 08:21:31;;;;;;;6.15;4.40;;;;;;;5.27;89.02;94380.63;5019107;28;20041;-35
2022/12/04 08:23:59;;;;;;;5.53;4.63;;;;;;;5.26;88.99;94381.13;5029234;28;20017;-35
2022/12/04 08:26:27;;;;;;;4.97;3.97;;;;;;;5.20;89.00;94378.34;5026784;28;20155;-34
2022/12/04 08:28:53;;;;;;;7.45;5.47;;;;;;;5.26;89.42;94383.84;5027714;28;20025;-35
2022/12/04 08:31:22;;;;;;;6.72;4.57;;;;;;;5.23;89.23;94384.84;5026332;28;20032;-35
2022/12/04 08:33:48;;;;;;;5.53;3.95;;;;;;;5.30;89.42;94381.63;5028883;28;20120;-35
2022/12/04 08:36:18;;;;;;;7.20;4.72;;;;;;;5.45;87.78;94387.66;5027581;28;20521;-35
2022/12/04 08:38:43;;;;;;;5.90;4.18;;;;;;;5.27;87.48;94377.13;5023123;28;20022;-35
2022/12/04 08:41:11;;;;;;;7.47;5.40;;;;;;;5.44;88.01;94386.16;5029206;28;20179;-36
2022/12/04 08:43:37;;;;;;;8.05;4.60;;;;;;;5.31;88.03;94386.59;5029381;28;20040;-35
2022/12/04 08:46:05;;;;;;;6.75;5.07;;;;;;;5.29;88.44;94374.66;5023581;28;20030;-35
2022/12/04 08:48:31;;;;;;;8.07;5.03;;;;;;;5.36;88.78;94371.44;5026364;28;20251;-35
2022/12/04 08:50:58;;;;;;;7.07;4.93;;;;;;;5.30;88.08;94354.25;5020580;28;20207;-36
2022/12/04 08:53:24;;;;;;;8.02;5.22;;;;;;;5.50;88.01;94373.22;5025937;28;20053;-36
2022/12/04 08:55:50;;;;;;;6.88;5.07;;;;;;;5.65;86.95;94371.03;5020112;28;20069;-35
2022/12/04 08:58:16;;;;;;;12.98;6.07;;;;;;;5.77;86.29;94374.53;5036650;28;20037;-36
2022/12/04 09:00:41;;;;;;;7.25;5.13;;;;;;;5.69;86.31;94366.06;5027935;28;20022;-35
2022/12/04 09:03:10;;;;;;;9.65;6.13;;;;;;;5.74;85.68;94365.31;5025007;28;20029;-35
2022/12/04 09:05:36;;;;;;;9.20;5.28;;;;;;;5.64;85.59;94368.78;5025482;28;20030;-35
2022/12/04 09:08:01;;;;;;;5.97;3.90;;;;;;;5.52;85.71;94351.59;5029134;28;20040;-35
2022/12/04 09:10:27;;;;;;;5.68;4.78;;;;;;;5.35;86.68;94348.03;5025568;28;20037;-35
2022/12/04 09:12:52;;;;;;;6.15;4.40;;;;;;;5.29;87.49;94339.06;5026633;28;20037;-35
2022/12/04 09:15:18;;;;;;;6.53;4.50;;;;;;;5.25;87.94;94347.50;5021178;28;20022;-35
2022/12/04 09:17:43;;;;;;;7.43;4.82;;;;;;;5.55;86.46;94347.09;5024082;28;20629;-35
2022/12/04 09:20:09;;;;;;;6.60;4.38;;;;;;;5.71;85.64;94343.66;5037169;28;20154;-35
2022/12/04 09:22:36;;;;;;;5.22;3.67;;;;;;;5.69;84.91;94318.75;5027179;28;20029;-36
2022/12/04 09:25:03;;;;;;;7.07;3.90;;;;;;;5.74;84.56;94334.44;5022869;28;20033;-35
2022/12/04 09:27:29;;;;;;;7.32;5.50;;;;;;;5.73;85.34;94343.91;5019990;28;20539;-35
2022/12/04 09:29:55;;;;;;;7.93;5.60;;;;;;;5.80;84.34;94335.97;5022046;28;20053;-36
2022/12/04 09:32:20;;;;;;;12.93;4.88;;;;;;;5.82;83.51;94340.94;5028442;28;20017;-36
2022/12/04 09:34:47;;;;;;;6.65;4.97;;;;;;;5.90;83.67;94334.50;5028319;28;20052;-36
2022/12/04 09:37:12;;;;;;;6.97;4.90;;;;;;;5.84;83.70;94330.25;5028224;28;20040;-36
2022/12/04 09:39:38;;;;;;;9.80;6.30;;;;;;;5.96;83.22;94327.00;5025996;28;20044;-35
2022/12/04 09:42:09;;;;;;;8.18;5.88;;;;;;;6.04;82.65;94328.00;5027833;28;20056;-35
2022/12/04 09:44:39;;;;;;;8.35;5.45;;;;;;;6.17;81.61;94324.03;5028007;28;20037;-35
2022/12/04 09:47:11;;;;;;;6.55;4.50;;;;;;;6.31;81.65;94314.78;5025840;28;20037;-36
2022/12/04 09:49:52;;;;;;;7.18;4.75;;;;;;;6.20;80.19;94325.75;5032801;28;20033;-36
2022/12/04 09:52:43;;;;;;;6.97;4.95;;;;;;;6.33;80.23;94326.75;5025594;28;20167;-36
2022/12/04 09:55:21;;;;;;;8.73;5.03;;;;;;;6.21;79.49;94325.28;5025905;28;20037;-35
2022/12/04 09:57:48;;;;;;;8.48;5.13;;;;;;;6.19;80.41;94321.53;5028165;28;20021;-35
2022/12/04 10:00:16;;;;;;;6.80;4.10;;;;;;;6.08;79.93;94325.03;5026581;28;20033;-35
2022/12/04 10:02:45;;;;;;;7.50;5.32;;;;;;;5.87;80.71;94313.56;5022988;28;20519;-35
2022/12/04 10:05:21;;;;;;;8.88;5.25;;;;;;;5.93;81.17;94319.78;5021398;28;20112;-36
2022/12/04 10:08:09;;;;;;;7.07;4.13;;;;;;;5.94;80.75;94317.78;5023292;28;20029;-35
2022/12/04 10:10:41;;;;;;;5.90;4.18;;;;;;;6.00;81.27;94318.53;5025976;28;20409;-35
2022/12/04 10:13:34;;;;;;;5.82;4.20;;;;;;;6.06;80.61;94302.84;5023120;28;20768;-35
2022/12/04 10:16:10;;;;;;;5.97;3.67;;;;;;;6.01;81.07;94300.84;5026204;28;20133;-35
2022/12/04 10:18:51;;;;;;;6.85;4.80;;;;;;;6.26;80.51;94294.34;5027668;28;20085;-36
2022/12/04 10:21:40;;;;;;;12.93;4.20;;;;;;;6.38;79.49;94292.34;5024368;28;20029;-35
2022/12/04 10:24:28;;;;;;;5.80;3.90;;;;;;;6.44;78.87;94279.38;5020068;28;20045;-36
2022/12/04 10:26:59;;;;;;;7.07;4.47;;;;;;;6.33;79.29;94266.44;5023108;28;20025;-35
2022/12/04 10:29:33;;;;;;;7.35;5.07;;;;;;;6.52;79.12;94263.91;5023628;28;20040;-36
2022/12/04 10:32:19;;;;;;;8.05;4.70;;;;;;;6.66;77.10;94246.41;5024668;28;20040;-36
2022/12/04 10:34:46;;;;;;;5.93;4.13;;;;;;;6.66;77.70;94243.66;5021922;28;20029;-35
2022/12/04 10:37:13;;;;;;;8.75;5.20;;;;;;;6.78;77.55;94234.88;5022147;28;20437;-35
2022/12/04 10:39:44;;;;;;;4.78;3.90;;;;;;;7.07;76.35;94228.00;5021927;28;20127;-35
2022/12/04 10:42:37;;;;;;;7.15;4.72;;;;;;;7.17;76.21;94218.22;5020871;28;20086;-36
2022/12/04 10:45:05;;;;;;;7.70;4.57;;;;;;;7.23;75.83;94229.19;5023716;28;20098;-36
2022/12/04 10:47:31;;;;;;;7.95;4.45;;;;;;;7.38;75.86;94227.59;5026919;28;20109;-36
2022/12/04 10:50:04;;;;;;;9.43;6.57;;;;;;;7.57;75.89;94213.97;5032419;28;20030;-36
2022/12/04 10:52:29;;;;;;;7.53;4.50;;;;;;;7.58;74.06;94218.94;5020474;28;20060;-36
2022/12/04 10:54:59;;;;;;;9.25;5.28;;;;;;;7.79;73.74;94224.06;5026288;28;20754;-36
2022/12/04 10:57:40;;;;;;;6.93;4.75;;;;;;;7.96;72.06;94221.91;5021672;28;20029;-36
2022/12/04 11:00:27;;;;;;;10.73;6.15;;;;;;;8.15;72.46;94225.47;5021919;28;20034;-35
2022/12/04 11:02:55;;;;;;;7.90;5.65;;;;;;;8.36;71.33;94215.53;5020511;28;20040;-36
2022/12/04 11:05:42;;;;;;;5.97;4.35;;;;;;;8.70;70.73;94211.19;5025122;28;20071;-36
2022/12/04 11:08:19;;;;;;;7.80;4.97;;;;;;;8.71;68.17;94209.91;5016519;28;20504;-36
2022/12/04 11:11:05;;;;;;;8.10;5.13;;;;;;;8.27;68.93;94202.88;5025207;28;20536;-35
2022/12/04 11:13:31;;;;;;;6.65;3.90;;;;;;;8.07;68.89;94210.81;5023481;28;20029;-36
2022/12/04 11:15:58;;;;;;;8.95;5.50;;;;;;;7.73;71.16;94207.63;5018918;28;20130;-35
2022/12/04 11:18:26;;;;;;;8.32;4.82;;;;;;;7.73;71.89;94204.88;5021861;28;20048;-35
2022/12/04 11:21:07;;;;;;;7.40;4.63;;;;;;;7.53;72.31;94206.00;5024863;28;20544;-35
2022/12/04 11:23:40;;;;;;;5.43;3.95;;;;;;;7.17;73.16;94209.97;5016149;28;20573;-35
2022/12/04 11:26:06;;;;;;;15.32;5.82;;;;;;;6.96;74.46;94213.59;5023716;28;20424;-35
2022/12/04 11:28:32;;;;;;;9.60;5.38;;;;;;;7.17;74.17;94212.72;5025521;28;20075;-35
2022/12/04 11:31:00;;;;;;;7.53;5.00;;;;;;;7.09;75.32;94213.75;5027512;28;20037;-35
2022/12/04 11:33:32;;;;;;;6.90;4.43;;;;;;;7.29;75.07;94205.91;5024289;28;20057;-36
2022/12/04 11:36:00;;;;;;;7.40;4.75;;;;;;;7.44;73.25;94208.31;5027110;28;20026;-36
2022/12/04 11:38:28;;;;;;;6.45;4.50;;;;;;;7.42;72.21;94205.34;5024463;28;20113;-36
2022/12/04 11:40:56;;;;;;;7.65;5.43;;;;;;;7.31;73.40;94206.16;5029742;28;20033;-36
2022/12/04 11:43:25;;;;;;;7.80;5.28;;;;;;;7.22;73.11;94214.69;5031865;28;20025;-35
2022/12/04 11:45:56;;;;;;;7.22;5.15;;;;;;;7.06;74.39;94209.31;5031342;28;20037;-35
2022/12/04 11:48:21;;;;;;;8.02;5.28;;;;;;;6.76;75.11;94181.75;5027863;28;20022;-36
2022/12/04 11:51:11;;;;;;;9.00;5.30;;;;;;;6.93;75.07;94198.88;5030278;28;20031;-36
2022/12/04 11:53:42;;;;;;;7.07;4.80;;;;;;;6.94;74.96;94194.13;5031794;28;20036;-35
2022/12/04 11:56:13;;;;;;;6.40;4.05;;;;;;;6.89;75.64;94190.91;5027298;28;20057;-36
2022/12/04 11:58:51;;;;;;;7.28;4.38;;;;;;;6.98;75.19;94183.63;5027758;28;20040;-36
2022/12/04 12:01:35;;;;;;;7.82;4.97;;;;;;;7.04;74.78;94196.06;5029086;28;20038;-35
2022/12/04 12:04:01;;;;;;;11.73;7.57;;;;;;;7.06;75.03;94196.31;5031590;28;20036;-35
2022/12/04 12:06:48;;;;;;;8.75;5.80;;;;;;;7.11;74.94;94190.03;5027915;28;20029;-35